Baring, MO

10:28 AM CDT on July 26, 2014 (GMT -0500)
Fort Madison Municipal (KFSW) Elev 725 ft | 40.66 °N, 91.33 °W | Change Station

Current weather conditions updated 1 hour ago

Overcast
Overcast
77 °F
Feels Like 77 °F
N
5
Wind Variable Wind from SSW

Today is forecast to be Much Warmer than yesterday. Thunderstorms likely early tonight.

Today
High -- | Low -- °F
--% Chance of Precip.
Yesterday
High -- | Low -- °F
Precip. -- in
6:01 AM 8:29 PM
Waning Crescent, 0% visible
Pressure 29.83 in
Visibility 7.0 miles
Clouds Overcast 1300 ft
Dew Point 73 °F
Humidity 89%
Rainfall 0.00 in
Snow Depth Not available.
UV 1 out of 12
Pollen 6.60 out of 12
Air Quality Not available.
Flu Activity Not available.
METAR KFSW 261415Z AUTO 21004KT 7SM OVC013 25/23 A2983 RMK AO2

More Conditions Fewer Conditions

Pressure 29.83 in
Visibility 7.0 miles
Clouds Overcast 1300 ft
Dew Point 73 °F
Humidity 89%
Rainfall 0.00 in
Snow Depth Not available.
UV 1 out of 12
Pollen 6.60 out of 12
Air Quality Not available.
Flu Activity Not available.
METAR KFSW 261415Z AUTO 21004KT 7SM OVC013 25/23 A2983 RMK AO2

More Conditions Fewer Conditions

10-Day Weather Forecast

Almanac

Astronomy

Jul. 26, 2014 Rise Set
Actual Time 6:01 AM CDT 8:29 PM CDT
Civil Twilight 5:30 AM CDT 9:00 PM CDT
Nautical Twilight 4:51 AM CDT 9:38 PM CDT
Astronomical Twilight 4:08 AM CDT 10:21 PM CDT
Moon 5:54 AM CDT 8:04 PM CDT
Length of Visible Light 15h 29m
Length of Day
14h 27m
Tomorrow will be 1m 49s shorter.
Waning Crescent, 0% of the Moon is Illuminated
Today
Waning Crescent
Jul 26
New
Aug 3
First Quarter
Aug 10
Full
Aug 17
Last Quarter

Today's Extremes

State Highs State Lows

Community

WunderPhotos

Upload Photos

1,737,615 photos uploaded!

Nearby

Snow Depth

Station Depth Elevation
No new snow has been reported.

Earthquake Activity

City Distance Mag. Time & Date
No recent earthquake activity has been reported nearby.
Minimum magnitude displayed is 2.5.

Coastal Water Temperatures

Place Temperature
No Stations Reporting

Nearby Weather Stations

Station Location Temp. Heat Index Dew Point Humidity Wind Precip. Elev Updated Type
La Plata, La Plata, MO 84.6 °F 93 °F 75 °F 74% South  at  4.5 mph 0.00 in / hr 928 ft 10:28 AM CDT Rapid Fire
Lancaster, MO 78.2 °F 81 °F 75 °F 90% NE  at  0.0 mph - / hr 915 ft 10:24 AM CDT Normal

Show More Stations Show Fewer Stations